Time;durP1;ratioP1;P1;durP2;ratioP2;P2;SDS_P1;SDS_P2;PMS_P1;PMS_P2;Temp;Humidity;BMP_temperature;BMP_pressure;BME280_temperature;BME280_humidity;BME280_pressure;Samples;Min_cycle;Max_cycle;Signal;HPM_P1;HPM_P2
2023/11/13 00:02:13;;;;;;;38.00;26.25;;;3.90;99.90;;;;;;7374166;19;20278;-83
2023/11/13 00:04:41;;;;;;;41.83;29.23;;;3.90;99.90;;;;;;7370898;19;20849;-84
2023/11/13 00:07:07;;;;;;;45.70;31.17;;;3.80;99.90;;;;;;7373586;19;20101;-83
2023/11/13 00:09:33;;;;;;;48.42;29.15;;;3.80;99.90;;;;;;7371534;19;20030;-83
2023/11/13 00:12:00;;;;;;;39.50;27.70;;;3.70;99.90;;;;;;7371549;19;20022;-83
2023/11/13 00:14:26;;;;;;;40.17;27.98;;;3.80;99.90;;;;;;7370245;19;20499;-83
2023/11/13 00:16:52;;;;;;;39.28;27.40;;;3.70;99.90;;;;;;7372162;19;20042;-82
2023/11/13 00:19:18;;;;;;;44.47;30.17;;;3.60;99.90;;;;;;7374841;19;20063;-83
2023/11/13 00:21:45;;;;;;;47.42;29.35;;;3.60;99.90;;;;;;7377381;19;20479;-82
2023/11/13 00:24:12;;;;;;;40.90;27.50;;;3.60;99.90;;;;;;7377511;19;20019;-83
2023/11/13 00:26:39;;;;;;;43.10;27.83;;;3.50;99.90;;;;;;7375025;19;20013;-83
2023/11/13 00:29:08;;;;;;;44.80;27.80;;;3.50;99.90;;;;;;7372963;19;20024;-83
2023/11/13 00:31:34;;;;;;;39.13;26.50;;;3.50;99.90;;;;;;7371778;19;20010;-83
2023/11/13 00:34:00;;;;;;;48.83;29.40;;;3.40;99.90;;;;;;7370484;19;20082;-83
2023/11/13 00:36:28;;;;;;;39.05;27.42;;;3.40;99.90;;;;;;7372421;19;20018;-83
2023/11/13 00:38:54;;;;;;;45.83;29.83;;;3.40;99.90;;;;;;7367681;19;20996;-83
2023/11/13 00:41:21;;;;;;;39.55;27.90;;;3.40;99.90;;;;;;7370993;19;20006;-83
2023/11/13 00:43:47;;;;;;;36.65;26.15;;;3.30;99.90;;;;;;7372430;19;20459;-83
2023/11/13 00:46:14;;;;;;;39.53;27.00;;;3.20;99.90;;;;;;7373950;19;20011;-82
2023/11/13 00:48:40;;;;;;;38.13;26.00;;;3.20;99.90;;;;;;7372193;19;20022;-83
2023/11/13 00:51:08;;;;;;;40.50;27.40;;;3.20;99.90;;;;;;7373273;19;20019;-82
2023/11/13 00:53:38;;;;;;;39.95;28.08;;;3.10;99.90;;;;;;7374028;19;20090;-82
2023/11/13 00:56:08;;;;;;;41.83;26.42;;;3.10;99.90;;;;;;7373966;19;20022;-82
2023/11/13 00:58:36;;;;;;;40.85;28.80;;;3.00;99.90;;;;;;7372720;19;20048;-82
2023/11/13 01:01:07;;;;;;;41.78;27.38;;;3.00;99.90;;;;;;7369654;19;20674;-82
2023/11/13 01:03:33;;;;;;;48.08;28.52;;;2.90;99.90;;;;;;7372210;19;20470;-82
2023/11/13 01:06:00;;;;;;;43.47;28.33;;;2.90;99.90;;;;;;7374659;19;20104;-82
2023/11/13 01:08:27;;;;;;;45.90;29.60;;;2.90;99.90;;;;;;7374767;19;20040;-82
2023/11/13 01:10:57;;;;;;;54.75;30.92;;;2.90;99.90;;;;;;7371604;19;20010;-83
2023/11/13 01:13:24;;;;;;;41.38;28.40;;;3.00;99.90;;;;;;7373865;19;20238;-83
2023/11/13 01:15:53;;;;;;;47.58;28.55;;;2.90;99.90;;;;;;7375634;19;20007;-82
2023/11/13 01:18:21;;;;;;;46.08;28.60;;;2.90;99.90;;;;;;7371965;19;20014;-82
2023/11/13 01:20:48;;;;;;;43.00;27.80;;;2.90;99.90;;;;;;7371060;19;20907;-83
2023/11/13 01:23:17;;;;;;;47.63;30.90;;;2.80;99.90;;;;;;7370397;19;20018;-83
2023/11/13 01:25:43;;;;;;;44.17;28.52;;;2.80;99.90;;;;;;7370305;19;20022;-82
2023/11/13 01:28:09;;;;;;;47.65;29.40;;;2.80;99.90;;;;;;7367618;19;20631;-82
2023/11/13 01:30:36;;;;;;;45.67;27.92;;;2.80;99.90;;;;;;7374799;19;20030;-82
2023/11/13 01:33:02;;;;;;;50.10;31.02;;;2.80;99.90;;;;;;7369788;19;20026;-83
2023/11/13 01:35:31;;;;;;;40.92;28.13;;;2.80;99.90;;;;;;7371726;19;20010;-82
2023/11/13 01:37:59;;;;;;;49.05;29.60;;;2.70;99.90;;;;;;7369443;19;20081;-82
2023/11/13 01:40:25;;;;;;;42.63;28.27;;;2.70;99.90;;;;;;7370444;19;20056;-82
2023/11/13 01:42:52;;;;;;;37.30;27.80;;;2.60;99.90;;;;;;7372390;19;20026;-82
2023/11/13 01:45:18;;;;;;;43.42;28.83;;;2.70;99.90;;;;;;7369353;19;20078;-82
2023/11/13 01:47:47;;;;;;;40.53;28.52;;;2.60;99.90;;;;;;7355529;19;20028;-82
2023/11/13 01:50:17;;;;;;;46.00;28.83;;;2.60;99.90;;;;;;7369434;19;20049;-82
2023/11/13 01:52:44;;;;;;;50.00;31.05;;;2.60;99.90;;;;;;7364760;19;20070;-82
2023/11/13 01:55:11;;;;;;;42.83;27.13;;;2.60;99.90;;;;;;7372503;19;20026;-84
2023/11/13 01:57:39;;;;;;;49.20;28.08;;;2.50;99.90;;;;;;7367810;19;20376;-82
2023/11/13 02:00:07;;;;;;;68.05;30.55;;;2.50;99.90;;;;;;7367504;19;20025;-82
2023/11/13 02:02:43;;;;;;;41.00;29.15;;;2.50;99.90;;;;;;7369600;19;20025;-82
2023/11/13 02:05:10;;;;;;;46.55;28.92;;;2.40;99.90;;;;;;7370042;19;20627;-82
2023/11/13 02:07:41;;;;;;;45.22;27.45;;;2.40;99.90;;;;;;7369765;19;20022;-82
2023/11/13 02:10:08;;;;;;;39.63;25.42;;;2.40;99.90;;;;;;7369962;19;20759;-82
2023/11/13 02:12:37;;;;;;;39.08;27.33;;;2.30;99.90;;;;;;7370253;19;20352;-82
2023/11/13 02:15:04;;;;;;;39.25;27.05;;;2.40;99.90;;;;;;7371594;19;20022;-82
2023/11/13 02:17:30;;;;;;;40.45;27.17;;;2.40;99.90;;;;;;7365102;19;20342;-82
2023/11/13 02:19:57;;;;;;;45.25;28.95;;;2.30;99.90;;;;;;7370756;19;20672;-83
2023/11/13 02:22:23;;;;;;;47.55;29.13;;;2.30;99.90;;;;;;7369515;19;20086;-82
2023/11/13 02:24:51;;;;;;;37.33;26.95;;;2.30;99.90;;;;;;7371084;19;20018;-82
2023/11/13 02:27:28;;;;;;;45.35;27.45;;;2.30;99.90;;;;;;7370745;19;20022;-82
2023/11/13 02:29:54;;;;;;;40.38;26.70;;;2.30;99.90;;;;;;7368950;19;20579;-82
2023/11/13 02:32:21;;;;;;;41.53;26.95;;;2.30;99.90;;;;;;7372685;19;20010;-81
2023/11/13 02:34:47;;;;;;;41.47;27.48;;;2.30;99.90;;;;;;7367065;19;20033;-82
2023/11/13 02:37:14;;;;;;;41.33;28.25;;;2.30;99.90;;;;;;7367537;19;20018;-82
2023/11/13 02:39:41;;;;;;;49.17;28.10;;;2.30;99.90;;;;;;7368834;19;20931;-83
2023/11/13 02:42:08;;;;;;;44.05;29.95;;;2.30;99.90;;;;;;7366659;19;20180;-82
2023/11/13 02:44:34;;;;;;;38.47;27.42;;;2.30;99.90;;;;;;7370961;19;20022;-82
2023/11/13 02:47:01;;;;;;;46.95;30.60;;;2.30;99.90;;;;;;7371961;19;20035;-82
2023/11/13 02:49:28;;;;;;;46.92;30.50;;;2.40;99.90;;;;;;7370480;19;20018;-82
2023/11/13 02:51:54;;;;;;;52.72;31.60;;;2.40;99.90;;;;;;7366138;19;20011;-82
2023/11/13 02:54:20;;;;;;;53.83;31.02;;;2.40;99.90;;;;;;7375383;19;20355;-82
2023/11/13 02:56:46;;;;;;;43.92;29.38;;;2.40;99.90;;;;;;7370630;19;20022;-82
2023/11/13 02:59:14;;;;;;;51.08;31.25;;;2.40;99.90;;;;;;7378133;19;20021;-82
2023/11/13 03:01:41;;;;;;;50.25;30.48;;;2.40;99.90;;;;;;7371111;19;20025;-82
2023/11/13 03:04:08;;;;;;;51.90;30.92;;;2.40;99.90;;;;;;7379369;19;20355;-82
2023/11/13 03:06:34;;;;;;;52.10;30.75;;;2.40;99.90;;;;;;7378752;19;20014;-82
2023/11/13 03:09:00;;;;;;;41.30;27.52;;;2.40;99.90;;;;;;7370633;19;20018;-82
2023/11/13 03:11:27;;;;;;;42.72;28.30;;;2.30;99.90;;;;;;7373055;19;20643;-82
2023/11/13 03:13:53;;;;;;;42.65;27.33;;;2.30;99.90;;;;;;7375822;19;20046;-82
2023/11/13 03:16:20;;;;;;;37.70;26.52;;;2.30;99.90;;;;;;7375245;19;20007;-82
2023/11/13 03:18:46;;;;;;;39.10;25.23;;;2.30;99.90;;;;;;7374778;19;20010;-82
2023/11/13 03:21:13;;;;;;;37.22;26.23;;;2.30;99.90;;;;;;7376880;19;20011;-82
2023/11/13 03:23:40;;;;;;;35.53;26.63;;;2.30;99.90;;;;;;7372004;19;20016;-83
2023/11/13 03:26:09;;;;;;;39.67;26.20;;;2.40;99.90;;;;;;7375837;19;20039;-82
2023/11/13 03:28:36;;;;;;;42.58;28.92;;;2.40;99.90;;;;;;7371852;19;20089;-82
2023/11/13 03:31:03;;;;;;;43.92;27.52;;;2.40;99.90;;;;;;7373624;19;20779;-82
2023/11/13 03:33:29;;;;;;;41.75;27.23;;;2.40;99.90;;;;;;7372974;19;20010;-82
2023/11/13 03:35:56;;;;;;;46.00;29.63;;;2.50;99.90;;;;;;7370641;19;20117;-83
2023/11/13 03:38:22;;;;;;;48.03;29.63;;;2.50;99.90;;;;;;7371256;19;20018;-83
2023/11/13 03:40:56;;;;;;;52.50;33.10;;;2.50;99.90;;;;;;7369210;19;20019;-82
2023/11/13 03:43:23;;;;;;;58.28;33.00;;;2.50;99.90;;;;;;7374220;19;20048;-82
2023/11/13 03:45:52;;;;;;;64.53;36.90;;;2.60;99.90;;;;;;7370959;19;20019;-82
2023/11/13 03:48:18;;;;;;;75.45;37.10;;;2.60;99.90;;;;;;7371173;19;20036;-82
2023/11/13 03:50:44;;;;;;;80.07;39.72;;;2.70;99.90;;;;;;7373260;19;20011;-82
2023/11/13 03:53:13;;;;;;;78.55;37.65;;;2.80;99.90;;;;;;7374643;19;20015;-82
2023/11/13 03:55:40;;;;;;;68.07;39.17;;;2.90;99.90;;;;;;7373997;19;20019;-82
2023/11/13 03:58:06;;;;;;;65.00;37.55;;;3.00;99.90;;;;;;7373862;19;20021;-82
2023/11/13 04:00:34;;;;;;;69.25;38.85;;;3.00;99.90;;;;;;7373701;19;20022;-82
2023/11/13 04:03:01;;;;;;;74.20;40.38;;;3.00;99.90;;;;;;7368114;19;20022;-82
2023/11/13 04:05:29;;;;;;;73.07;41.80;;;3.00;99.90;;;;;;7371499;19;20022;-82
2023/11/13 04:07:57;;;;;;;70.10;39.13;;;3.10;99.90;;;;;;7370319;19;20019;-82
2023/11/13 04:10:24;;;;;;;84.20;43.08;;;3.10;99.90;;;;;;7374963;19;20026;-82
2023/11/13 04:12:54;;;;;;;76.17;40.80;;;3.10;99.90;;;;;;7372757;19;20039;-82
2023/11/13 04:15:23;;;;;;;63.67;38.97;;;3.20;99.90;;;;;;7373726;19;20045;-82
2023/11/13 04:17:51;;;;;;;65.85;38.78;;;3.20;99.90;;;;;;7370504;19;20022;-82
2023/11/13 04:20:21;;;;;;;56.75;35.80;;;3.20;99.90;;;;;;7368523;19;20022;-82
2023/11/13 04:22:48;;;;;;;52.28;33.72;;;3.10;99.90;;;;;;7369508;19;20019;-82
2023/11/13 04:25:16;;;;;;;62.13;36.55;;;3.10;99.90;;;;;;7372824;19;20022;-83
2023/11/13 04:27:43;;;;;;;68.32;39.60;;;3.20;99.90;;;;;;7364840;19;20018;-82
2023/11/13 04:30:09;;;;;;;63.30;36.42;;;3.20;99.90;;;;;;7368141;19;20022;-83
2023/11/13 04:32:36;;;;;;;64.90;36.97;;;3.20;99.90;;;;;;7367323;19;20100;-82
2023/11/13 04:35:02;;;;;;;68.32;38.78;;;3.20;99.90;;;;;;7366150;19;20013;-83
2023/11/13 04:37:29;;;;;;;57.70;35.88;;;3.20;99.90;;;;;;7364655;19;20699;-82
2023/11/13 04:39:55;;;;;;;63.30;38.67;;;3.30;99.90;;;;;;7366390;19;20046;-82
2023/11/13 04:42:23;;;;;;;72.38;39.63;;;3.30;99.90;;;;;;7363388;19;20035;-82
2023/11/13 04:44:51;;;;;;;60.75;36.63;;;3.30;99.90;;;;;;7370042;19;20014;-82
2023/11/13 04:47:18;;;;;;;64.72;37.85;;;3.30;99.90;;;;;;7364674;19;20014;-82
2023/11/13 04:49:44;;;;;;;73.07;38.67;;;3.30;99.90;;;;;;7367392;19;20026;-82
2023/11/13 04:52:10;;;;;;;62.90;38.13;;;3.30;99.90;;;;;;7365824;19;20022;-82
2023/11/13 04:54:37;;;;;;;66.55;35.67;;;3.30;99.90;;;;;;7366844;19;20010;-82
2023/11/13 04:57:04;;;;;;;68.05;37.25;;;3.30;99.90;;;;;;7365015;19;20019;-82
2023/11/13 04:59:31;;;;;;;58.08;35.05;;;3.30;99.90;;;;;;7367094;19;20019;-82
2023/11/13 05:01:58;;;;;;;64.40;37.30;;;3.30;99.90;;;;;;7364575;19;20031;-82
2023/11/13 05:04:27;;;;;;;59.13;36.25;;;3.30;99.90;;;;;;7367589;19;20053;-82
2023/11/13 05:06:54;;;;;;;57.85;36.17;;;3.40;99.90;;;;;;7364414;19;20013;-82
2023/11/13 05:09:20;;;;;;;63.85;36.58;;;3.40;99.90;;;;;;7360230;19;20063;-82
2023/11/13 05:11:47;;;;;;;54.90;35.95;;;3.40;99.90;;;;;;7364459;19;20022;-82
2023/11/13 05:14:13;;;;;;;57.67;35.25;;;3.40;99.90;;;;;;7364238;19;20057;-82
2023/11/13 05:16:39;;;;;;;52.35;34.70;;;3.40;99.90;;;;;;7365940;19;20018;-82
2023/11/13 05:19:06;;;;;;;64.75;36.95;;;3.40;99.90;;;;;;7365456;19;20014;-82
2023/11/13 05:21:32;;;;;;;58.80;35.17;;;3.40;99.90;;;;;;7368369;19;20018;-82
2023/11/13 05:23:59;;;;;;;53.63;34.85;;;3.40;99.90;;;;;;7363949;19;20033;-82
2023/11/13 05:26:26;;;;;;;65.90;37.22;;;3.40;99.90;;;;;;7362476;19;20070;-82
2023/11/13 05:28:53;;;;;;;60.30;36.67;;;3.50;99.90;;;;;;7364645;19;20022;-84
2023/11/13 05:31:20;;;;;;;50.47;34.33;;;3.40;99.90;;;;;;7367276;19;20014;-82
2023/11/13 05:33:47;;;;;;;51.90;34.88;;;3.50;99.90;;;;;;7365435;19;20505;-85
2023/11/13 05:36:13;;;;;;;56.05;35.92;;;3.80;99.90;;;;;;7366791;19;20022;-74
2023/11/13 05:38:43;;;;;;;56.17;35.67;;;3.70;99.90;;;;;;7366351;19;20018;-74
2023/11/13 05:41:10;;;;;;;56.45;35.70;;;3.60;99.90;;;;;;7364985;19;20110;-74
2023/11/13 05:43:37;;;;;;;54.83;35.28;;;3.60;99.90;;;;;;7365394;19;20094;-73
2023/11/13 05:46:03;;;;;;;48.72;32.08;;;3.60;99.90;;;;;;7363016;19;20555;-74
2023/11/13 05:48:29;;;;;;;53.20;33.05;;;3.60;99.90;;;;;;7368951;19;20109;-74
2023/11/13 05:50:55;;;;;;;48.72;31.88;;;3.60;99.90;;;;;;7359675;19;20786;-74
2023/11/13 05:53:22;;;;;;;53.30;32.90;;;3.60;99.90;;;;;;7367421;19;20025;-74
2023/11/13 05:55:51;;;;;;;48.92;33.53;;;3.60;99.90;;;;;;7366437;19;20346;-74
2023/11/13 05:58:18;;;;;;;47.88;32.47;;;3.70;99.90;;;;;;7368844;19;20026;-74
2023/11/13 06:00:45;;;;;;;49.42;32.17;;;3.70;99.90;;;;;;7360820;19;20712;-74
2023/11/13 06:03:11;;;;;;;49.83;31.88;;;3.70;99.90;;;;;;7365495;19;20042;-76
2023/11/13 06:05:37;;;;;;;54.55;33.58;;;3.80;99.90;;;;;;7364901;19;20064;-74
2023/11/13 06:08:04;;;;;;;52.00;31.85;;;3.70;99.90;;;;;;7363462;19;20015;-74
2023/11/13 06:10:30;;;;;;;44.33;29.85;;;3.70;99.90;;;;;;7363072;19;20795;-74
2023/11/13 06:12:56;;;;;;;47.15;30.67;;;3.80;99.90;;;;;;7363206;19;20889;-74
2023/11/13 06:15:23;;;;;;;47.42;32.42;;;3.80;99.90;;;;;;7365864;19;20014;-74
2023/11/13 06:17:49;;;;;;;44.20;29.88;;;3.80;99.90;;;;;;7359438;19;20731;-74
2023/11/13 06:20:17;;;;;;;44.17;29.42;;;3.80;99.90;;;;;;7361139;19;20022;-74
2023/11/13 06:22:48;;;;;;;44.75;30.08;;;3.80;99.90;;;;;;7360752;19;20022;-74
2023/11/13 06:25:14;;;;;;;48.60;30.63;;;3.80;99.90;;;;;;7365224;19;20091;-74
2023/11/13 06:27:41;;;;;;;45.78;30.48;;;3.80;99.90;;;;;;7364390;19;20086;-74
2023/11/13 06:30:13;;;;;;;39.83;28.05;;;3.90;99.90;;;;;;7373477;19;20653;-74
2023/11/13 06:32:40;;;;;;;48.20;31.23;;;3.90;99.90;;;;;;7371908;19;20600;-74
2023/11/13 06:35:06;;;;;;;43.53;29.98;;;3.90;99.90;;;;;;7373168;19;20388;-74
2023/11/13 06:37:33;;;;;;;42.13;29.00;;;3.90;99.90;;;;;;7373476;19;20476;-74
2023/11/13 06:39:59;;;;;;;48.85;30.67;;;3.90;99.90;;;;;;7373657;19;20018;-74
2023/11/13 06:42:25;;;;;;;44.55;29.40;;;3.80;99.90;;;;;;7362819;19;20082;-74
2023/11/13 06:44:53;;;;;;;48.50;30.80;;;3.80;99.90;;;;;;7373950;19;20525;-73
2023/11/13 06:47:22;;;;;;;49.53;31.10;;;3.80;99.90;;;;;;7365546;19;20014;-74
2023/11/13 06:49:48;;;;;;;39.08;28.55;;;3.80;99.90;;;;;;7371417;19;20023;-74
2023/11/13 06:52:15;;;;;;;47.63;29.27;;;3.80;99.90;;;;;;7369289;19;20461;-73
2023/11/13 06:54:42;;;;;;;44.33;28.38;;;3.90;99.90;;;;;;7371783;19;20037;-74
2023/11/13 06:57:10;;;;;;;35.78;27.52;;;3.80;99.90;;;;;;7368941;19;20022;-74
2023/11/13 06:59:37;;;;;;;44.22;29.45;;;3.80;99.90;;;;;;7372021;19;20014;-74
2023/11/13 07:02:03;;;;;;;40.75;28.25;;;3.80;99.90;;;;;;7370108;19;20014;-73
2023/11/13 07:04:30;;;;;;;37.85;27.80;;;3.90;99.90;;;;;;7372174;19;20022;-74
2023/11/13 07:06:56;;;;;;;41.58;28.70;;;3.90;99.90;;;;;;7371555;19;20488;-74
2023/11/13 07:09:23;;;;;;;39.35;28.38;;;3.90;99.90;;;;;;7366909;19;20015;-74
2023/11/13 07:11:49;;;;;;;44.72;27.90;;;3.90;99.90;;;;;;7370800;19;20019;-74
2023/11/13 07:14:16;;;;;;;38.33;27.00;;;4.00;99.90;;;;;;7374730;19;20034;-74
2023/11/13 07:16:43;;;;;;;40.70;27.00;;;3.90;99.90;;;;;;7379097;19;20019;-74
2023/11/13 07:19:14;;;;;;;36.35;22.90;;;4.00;99.90;;;;;;7376844;19;20037;-74
2023/11/13 07:21:41;;;;;;;43.67;36.22;;;4.10;99.90;;;;;;7370771;19;20019;-74
2023/11/13 07:24:09;;;;;;;36.30;27.00;;;4.10;99.90;;;;;;7361103;19;20421;-74
2023/11/13 07:26:36;;;;;;;34.58;25.90;;;4.10;99.90;;;;;;7374587;19;20034;-74
2023/11/13 07:29:03;;;;;;;38.58;26.08;;;4.20;99.90;;;;;;7366802;19;20025;-74
2023/11/13 07:31:30;;;;;;;38.40;26.25;;;4.20;99.90;;;;;;7371013;19;20889;-74
2023/11/13 07:33:56;;;;;;;40.25;26.05;;;4.20;99.90;;;;;;7364822;19;20022;-74
2023/11/13 07:36:26;;;;;;;40.28;26.50;;;4.20;99.90;;;;;;7371365;19;20018;-75
2023/11/13 07:38:52;;;;;;;39.47;25.83;;;4.20;99.90;;;;;;7366424;19;20556;-74
2023/11/13 07:41:19;;;;;;;36.63;25.98;;;4.30;99.90;;;;;;7370423;19;20022;-74
2023/11/13 07:43:48;;;;;;;38.60;24.70;;;4.30;99.90;;;;;;7367657;19;20019;-74
2023/11/13 07:46:17;;;;;;;37.17;25.08;;;4.40;99.90;;;;;;7371208;19;20081;-74
2023/11/13 07:48:46;;;;;;;33.28;23.25;;;4.40;99.90;;;;;;7363613;19;20025;-73
2023/11/13 07:51:13;;;;;;;34.95;24.25;;;4.50;99.90;;;;;;7372630;19;20015;-73
2023/11/13 07:53:39;;;;;;;38.28;23.98;;;4.50;99.90;;;;;;7367890;19;20026;-73
2023/11/13 07:56:09;;;;;;;35.30;25.40;;;4.50;99.90;;;;;;7370848;19;20019;-74
2023/11/13 07:58:35;;;;;;;34.00;24.15;;;4.50;99.90;;;;;;7368426;19;20023;-73
2023/11/13 08:01:02;;;;;;;31.10;22.98;;;4.60;99.90;;;;;;7368221;19;20033;-74
2023/11/13 08:03:28;;;;;;;29.73;23.10;;;4.60;99.90;;;;;;7369282;19;20060;-74
2023/11/13 08:05:55;;;;;;;27.90;21.58;;;4.60;99.90;;;;;;7368342;19;20011;-74
2023/11/13 08:08:21;;;;;;;33.38;22.75;;;4.70;99.90;;;;;;7369893;19;20022;-74
2023/11/13 08:10:47;;;;;;;30.70;22.77;;;4.70;99.90;;;;;;7371089;19;20014;-74
2023/11/13 08:13:14;;;;;;;25.65;19.25;;;4.70;99.90;;;;;;7372867;19;20034;-74
2023/11/13 08:15:44;;;;;;;30.13;21.80;;;4.80;99.90;;;;;;7367070;19;20045;-74
2023/11/13 08:18:15;;;;;;;26.40;21.58;;;4.80;99.90;;;;;;7373031;19;20015;-74
2023/11/13 08:20:42;;;;;;;28.05;20.42;;;4.80;99.90;;;;;;7369200;19;20019;-74
2023/11/13 08:23:16;;;;;;;30.92;21.70;;;4.90;99.90;;;;;;7370222;19;20022;-74
2023/11/13 08:25:47;;;;;;;35.80;22.27;;;4.90;99.90;;;;;;7367068;19;20732;-74
2023/11/13 08:28:14;;;;;;;27.83;20.88;;;4.90;99.90;;;;;;7373823;19;20029;-74
2023/11/13 08:30:46;;;;;;;32.53;20.65;;;4.90;99.90;;;;;;7370027;19;20502;-74
2023/11/13 08:33:12;;;;;;;;;;;5.00;99.90;;;;;;7373909;19;20018;-75
2023/11/13 08:35:39;;;;;;;29.70;21.58;;;5.00;99.90;;;;;;7372985;19;19925;-74
2023/11/13 08:38:10;;;;;;;26.23;20.80;;;5.00;99.90;;;;;;7367769;19;20019;-74
2023/11/13 08:40:37;;;;;;;29.90;21.38;;;5.00;99.90;;;;;;7373072;19;20035;-74
2023/11/13 08:43:09;;;;;;;27.88;20.00;;;4.90;99.90;;;;;;7369648;19;20010;-74
2023/11/13 08:45:37;;;;;;;28.88;21.23;;;5.10;99.90;;;;;;7371215;19;20033;-74
2023/11/13 08:48:05;;;;;;;27.80;20.85;;;5.10;99.90;;;;;;7370843;19;20022;-74
2023/11/13 08:50:31;;;;;;;30.25;20.92;;;5.00;99.90;;;;;;7371438;19;20033;-74
2023/11/13 08:52:58;;;;;;;28.02;20.45;;;5.10;99.90;;;;;;7369806;19;20022;-74
2023/11/13 08:55:25;;;;;;;31.45;22.10;;;5.10;99.90;;;;;;7370163;19;20026;-75
2023/11/13 08:57:52;;;;;;;30.05;21.98;;;5.10;99.90;;;;;;7371967;19;20657;-74
2023/11/13 09:00:22;;;;;;;28.52;19.85;;;5.20;99.90;;;;;;7374338;19;20351;-75
2023/11/13 09:02:59;;;;;;;30.02;21.58;;;5.20;99.90;;;;;;7371398;19;20078;-74
2023/11/13 09:05:26;;;;;;;28.25;22.00;;;5.30;99.90;;;;;;7369786;19;20669;-76
2023/11/13 09:07:55;;;;;;;28.10;21.40;;;5.30;99.90;;;;;;7371099;19;20022;-75
2023/11/13 09:10:21;;;;;;;32.75;22.75;;;5.30;99.90;;;;;;7373001;19;20033;-74
2023/11/13 09:12:48;;;;;;;36.47;22.88;;;5.40;99.90;;;;;;7369054;19;20023;-75
2023/11/13 09:15:14;;;;;;;33.85;23.52;;;5.40;99.90;;;;;;7374928;19;20022;-74
2023/11/13 09:17:45;;;;;;;33.15;21.65;;;5.40;99.90;;;;;;7369835;19;20057;-74
2023/11/13 09:20:19;;;;;;;38.08;23.70;;;5.40;99.90;;;;;;7374351;19;20010;-74
2023/11/13 09:22:50;;;;;;;35.40;22.55;;;5.40;99.90;;;;;;7366390;19;20404;-74
2023/11/13 09:25:17;;;;;;;46.50;23.35;;;5.50;99.90;;;;;;7370469;19;20035;-75
2023/11/13 09:27:48;;;;;;;45.90;26.55;;;5.50;99.90;;;;;;7371570;19;20029;-75
2023/11/13 09:30:18;;;;;;;;;;;5.50;99.90;;;;;;7373871;19;20026;-75
2023/11/13 09:32:45;;;;;;;45.65;27.20;;;5.60;99.90;;;;;;7369480;19;19934;-75
2023/11/13 09:35:22;;;;;;;50.90;26.40;;;5.60;99.90;;;;;;7372630;19;20378;-74
2023/11/13 09:37:51;;;;;;;54.28;28.10;;;5.60;99.90;;;;;;7370159;19;20023;-74
2023/11/13 09:40:36;;;;;;;54.80;27.58;;;5.60;99.90;;;;;;7369437;19;20375;-74
2023/11/13 09:43:34;;;;;;;57.92;28.33;;;5.60;99.90;;;;;;7371199;19;20622;-74
2023/11/13 09:46:04;;;;;;;51.63;28.63;;;5.70;99.90;;;;;;7367597;19;20022;-74
2023/11/13 09:48:43;;;;;;;70.80;33.45;;;5.70;99.90;;;;;;7370775;19;20042;-74
2023/11/13 09:51:13;;;;;;;62.78;32.17;;;5.70;99.90;;;;;;7368001;19;20026;-74
2023/11/13 09:53:42;;;;;;;65.85;31.05;;;5.70;99.90;;;;;;7366356;19;20022;-74
2023/11/13 09:56:13;;;;;;;108.25;58.45;;;5.70;99.90;;;;;;7364108;19;20030;-72
2023/11/13 09:58:39;;;;;;;84.13;36.33;;;6.10;99.90;;;;;;7368034;19;20023;-74
2023/11/13 10:01:09;;;;;;;78.93;35.45;;;6.10;99.90;;;;;;7367488;19;20042;-74
2023/11/13 10:03:36;;;;;;;80.85;34.70;;;6.10;99.90;;;;;;7372825;19;21541;-75
2023/11/13 10:06:10;;;;;;;51.92;25.67;;;6.00;99.90;;;;;;7374680;19;20018;-74
2023/11/13 10:08:49;;;;;;;74.43;33.88;;;5.90;99.90;;;;;;7375064;19;20774;-73
2023/11/13 10:11:16;;;;;;;77.57;34.33;;;5.90;99.90;;;;;;7373091;19;20023;-73
2023/11/13 10:13:44;;;;;;;69.70;30.75;;;6.00;99.90;;;;;;7373623;19;20021;-74
2023/11/13 10:16:24;;;;;;;79.82;33.80;;;6.10;99.90;;;;;;7376102;19;21011;-74
2023/11/13 10:18:50;;;;;;;68.72;32.33;;;6.00;99.90;;;;;;7371211;19;20023;-74
2023/11/13 10:21:35;;;;;;;63.55;30.73;;;6.00;99.90;;;;;;7373309;19;20359;-73
2023/11/13 10:24:19;;;;;;;70.90;32.85;;;6.10;99.90;;;;;;7373277;19;20460;-74
2023/11/13 10:26:53;;;;;;;76.22;34.22;;;6.20;99.90;;;;;;7369006;19;20054;-74
2023/11/13 10:29:30;;;;;;;62.38;32.03;;;6.20;99.90;;;;;;7372106;19;20090;-74
2023/11/13 10:31:56;;;;;;;67.50;33.65;;;6.20;99.90;;;;;;7373918;19;20044;-74
2023/11/13 10:34:23;;;;;;;79.90;36.25;;;6.30;99.90;;;;;;7374519;19;20030;-74
2023/11/13 10:37:11;;;;;;;78.32;36.47;;;6.30;99.90;;;;;;7374678;19;20014;-75
2023/11/13 10:39:42;;;;;;;63.95;31.77;;;6.40;99.90;;;;;;7373080;19;20022;-74
2023/11/13 10:42:22;;;;;;;64.37;30.90;;;6.50;99.90;;;;;;7369383;19;20097;-75
2023/11/13 10:44:54;;;;;;;64.88;31.30;;;6.50;99.90;;;;;;7375042;19;20025;-74
2023/11/13 10:47:23;;;;;;;65.70;30.67;;;6.60;99.90;;;;;;7373971;19;20026;-75
2023/11/13 10:49:56;;;;;;;78.13;35.97;;;6.70;99.90;;;;;;7374145;19;20642;-74
2023/11/13 10:52:24;;;;;;;65.72;34.20;;;6.70;99.90;;;;;;7372078;19;20262;-74
2023/11/13 10:54:53;;;;;;;70.65;34.90;;;6.80;99.90;;;;;;7372466;19;20014;-74
2023/11/13 10:57:21;;;;;;;70.72;35.92;;;6.90;99.90;;;;;;7374629;19;20019;-74
2023/11/13 10:59:52;;;;;;;67.85;35.63;;;7.00;99.90;;;;;;7374359;19;20018;-74
2023/11/13 11:02:19;;;;;;;59.65;33.92;;;7.00;99.90;;;;;;7374687;19;20022;-75
2023/11/13 11:04:52;;;;;;;69.70;33.22;;;7.10;99.90;;;;;;7371428;19;20018;-75
2023/11/13 11:07:23;;;;;;;59.00;32.30;;;7.20;99.90;;;;;;7372831;19;20115;-74
2023/11/13 11:09:53;;;;;;;50.28;29.25;;;7.20;99.90;;;;;;7373201;19;20447;-75
2023/11/13 11:12:21;;;;;;;57.05;30.08;;;7.30;99.90;;;;;;7373065;19;20495;-73
2023/11/13 11:15:08;;;;;;;49.80;28.92;;;7.30;99.90;;;;;;7373131;19;20030;-74
2023/11/13 11:17:41;;;;;;;48.30;27.55;;;7.40;99.90;;;;;;7370634;19;20057;-75
2023/11/13 11:20:15;;;;;;;57.92;28.77;;;7.40;99.90;;;;;;7372509;19;20515;-74
2023/11/13 11:22:50;;;;;;;48.67;29.88;;;7.40;99.90;;;;;;7372301;19;20019;-75
2023/11/13 11:26:00;;;;;;;53.78;29.23;;;7.50;99.90;;;;;;7372944;19;20022;-74
2023/11/13 11:28:44;;;;;;;57.20;27.77;;;7.50;99.90;;;;;;7368047;19;20025;-74
2023/11/13 11:31:38;;;;;;;47.17;26.98;;;7.50;99.90;;;;;;7367692;19;20086;-74
2023/11/13 11:34:05;;;;;;;43.42;24.25;;;7.50;99.90;;;;;;7369192;19;20083;-75
2023/11/13 11:36:37;;;;;;;52.05;28.20;;;7.60;99.90;;;;;;7371785;19;20693;-75
2023/11/13 11:39:23;;;;;;;48.50;26.73;;;7.70;99.90;;;;;;7368023;19;20019;-75
2023/11/13 11:41:54;;;;;;;48.08;28.23;;;7.70;99.90;;;;;;7370220;19;20018;-75
2023/11/13 11:44:28;;;;;;;41.75;25.15;;;7.70;99.90;;;;;;7374262;19;20031;-74
2023/11/13 11:46:55;;;;;;;37.72;24.65;;;7.80;99.90;;;;;;7373175;19;20104;-74
2023/11/13 11:49:30;;;;;;;44.28;22.30;;;7.80;99.90;;;;;;7372793;19;20014;-74
2023/11/13 11:52:08;;;;;;;34.97;18.67;;;7.80;99.90;;;;;;7371644;19;20018;-74
2023/11/13 11:54:35;;;;;;;36.28;22.30;;;7.90;99.90;;;;;;7373245;19;20044;-75
2023/11/13 11:57:10;;;;;;;42.50;25.33;;;8.00;99.90;;;;;;7372546;19;20029;-75
2023/11/13 11:59:36;;;;;;;37.05;24.05;;;8.00;99.90;;;;;;7372357;19;20039;-75
2023/11/13 12:02:03;;;;;;;45.63;25.88;;;8.00;99.90;;;;;;7376378;19;20056;-75
2023/11/13 12:04:30;;;;;;;44.45;24.17;;;8.00;99.90;;;;;;7371231;19;20026;-75
2023/11/13 12:07:01;;;;;;;45.42;24.45;;;8.10;99.90;;;;;;7373219;19;20022;-74
2023/11/13 12:09:30;;;;;;;47.58;27.48;;;8.10;99.90;;;;;;7371564;19;20015;-75
2023/11/13 12:11:59;;;;;;;37.47;23.05;;;8.10;99.90;;;;;;7372990;19;20022;-74
2023/11/13 12:14:26;;;;;;;47.40;24.00;;;8.20;99.90;;;;;;7371642;19;20022;-75
2023/11/13 12:16:52;;;;;;;37.90;20.42;;;8.20;99.90;;;;;;7373740;19;20041;-74
2023/11/13 12:19:20;;;;;;;42.15;21.13;;;8.20;99.90;;;;;;7372682;19;20014;-74
2023/11/13 12:21:46;;;;;;;29.50;17.45;;;8.20;99.90;;;;;;7374476;19;20054;-75
2023/11/13 12:24:16;;;;;;;36.33;21.40;;;8.30;99.90;;;;;;7373558;19;20017;-75
2023/11/13 12:26:44;;;;;;;44.28;22.45;;;8.30;99.90;;;;;;7372767;19;20043;-75
2023/11/13 12:29:15;;;;;;;37.20;20.77;;;8.40;99.90;;;;;;7369219;19;20018;-75
2023/11/13 12:31:43;;;;;;;38.05;21.77;;;8.40;99.90;;;;;;7372799;19;20014;-74
2023/11/13 12:34:10;;;;;;;24.73;17.58;;;8.50;99.90;;;;;;7369843;19;20022;-75
2023/11/13 12:36:37;;;;;;;27.50;19.65;;;8.50;99.90;;;;;;7373326;19;20062;-75
2023/11/13 12:39:06;;;;;;;30.45;20.17;;;8.50;99.90;;;;;;7367238;19;20038;-75
2023/11/13 12:41:34;;;;;;;28.30;18.00;;;8.50;99.90;;;;;;7372232;19;20375;-75
2023/11/13 12:44:05;;;;;;;30.63;18.65;;;8.60;99.90;;;;;;7369930;19;20490;-75
2023/11/13 12:46:35;;;;;;;33.17;21.38;;;8.60;99.90;;;;;;7372241;19;20117;-75